Welcome to our Virtual Airline
Sign-in:

Flight MFC33591

  • Submitted By: Igor Doksas
  • Departure Airport: Kaltag (KAL)
  • Arrival Airport: Anvik (PANV)
  • Aircraft: DHC2 BEAVERT (N003MM_TW)
  • Flight Time: 00.58.29
  • Date Submitted: 2018/09/12
  • Route: STOP-OVER AT GRAYLING (KGX)
  • Status: Accepted
Flight Details
Gross Revenue:
(5 load / $ 108.00 per unit
$ 540.00
Fuel Cost:
(88.4505 fuel used @ 5.1 / unit)
$ 451.10

Additional Log Information:

View Log

FS[13:09] ----- Flight Opened -----
FS[13:09] Cigar Box - 1.1.4.0
FS[13:09] FS: FSX
FS[13:09] FSUIPC: v4.966
FS[13:09] Flight Number: MFC33591
FS[13:09] FS Aircraft: DHC-2A Misty Moorings 3 Tundra Wheels dirty
FS[13:09] FS Model: DHC2
FS[13:09] FS Type: DEHAVILLAND
FS[13:09] Departure: KAL
FS[13:09] Arrival: PANV
FS[13:09] Flight Level: 2500
FS[13:09] Flight Type: H
FS[13:09] Passengers: 5
FS[13:09] FOB: 302 lbs
FS[13:09] Gate: 2 - KAL
FS[13:09] Crash Detection: Disabled
FS[13:09] Crash Detection Aircraft: Disabled
FS[13:09] Engines: 1 Piston
FS[13:09] NOTE: Boarding has started
FS[13:09] FS: Paused
FS[13:09] Parking Brake: Engaged
FS[13:09] Main Door Closed
FS[13:09] COM1: 128.30
FS[13:09] COM2: 127.80
FS[13:09] Transponder: 1200
FS[13:09] NAV1: 113.70
FS[13:09] NAV2: 110.60
FS[13:09] ADF1: 284.0
FS[13:09] ADF2: 240.0
FS[13:09] Navigation Mode: NAV
FS[13:09] FS: Unpaused
FS[13:09] Engine 1: Started
FS[13:09] Light Data: Beacon ON
FS[13:09] Light Data: Navigation ON
FS[13:09] Light Data: Landing lights ON
FS[13:10] Parking Brake: Released
FS[13:10] NOTE: Taxi started
FS[13:11] Parking Brake: Engaged
FS[13:11] Flaps: Position 1
FS[13:11] Flaps: Position 2
FS[13:11] Parking Brake: Released
FS[13:12] NOTE: ----- TAKE OFF -----
FS[13:12] GS: 38 knots
FS[13:12] TAS: 40 knots
FS[13:12] IAS: 40 knots
FS[13:12] VS: 16 fpm
FS[13:12] FOB: 301 lbs
FS[13:12] Heading: 241°
FS[13:12] Pitch: 10°
FS[13:12] Bank: 0°
FS[13:12] Aircraft Weight: 3541.02 lbs
FS[13:12] Nearest Airport: KAL
FS[13:12] Distance: 0.67 miles
FS[13:12] Runway: ???
FS[13:12] Ground Surface: Gravel
FS[13:12] Ground Condition: Normal
FS[13:12] NOTE: Weather Report
FS[13:12] Wind Heading: 346°
FS[13:12] Wind Speed: 0 knots
FS[13:12] OAT: 14° C
FS[13:12] TAT: 14° C
FS[13:12] Precipitation: None
FS[13:12] Dew Point: 4° C
FS[13:12] Visibility: 62 miles
FS[13:12] METAR: KALB 121751Z 34003KT 10SM SCT013 BKN022 OVC028 23/18 A3028 RMK AO2 SLP251 60000 T02280183 10233 20194 58006KALI 121821Z AUTO 06008KT 10SM FEW018 BKN050 OVC055 28/23 A2991 RMK AO2 RAB06E17 P0000 T02780233KALK 121756Z AUTO 10SM CLR 31/04 A3013 RMK AO2 SLP101 T03060039 10306 20167 58001KALM 121815Z AUTO 32004KT 10SM CLR 30/08 A3008 RMK AO2KALN 121750Z 12007KT 10SM SCT041 25/16 A3018KALO 121754Z 18009KT 10SM FEW049 27/16 A3011 RMK AO2 SLP193 T02720156 10272 20150 58001KALS 121752Z AUTO VRB04KT 10SM CLR 24/M01 A3021 RMK AO2 SLP142 T02441011 10244 20011 58010KALW 121753Z 23007KT 10SM CLR 18/06 A2992 RMK AO2 SLP128 T01830061 10183 20111 58001KALX 121815Z AUTO 00000KT 10SM SCT036 31/25 A3008 RMK AO2 T03100251
FS[13:12] NOTE: Climb started
FS[13:12] Flaps: Position 0
FS[13:12] GS: 81 knots
FS[13:12] TAS: 81 knots
FS[13:12] IAS: 81 knots
FS[13:12] VS: 212 fpm
FS[13:12] View Mode: Virtual Cockpit
FS[13:14] NOTE: TOC reached
FS[13:14] NOTE: Cruise started
FS[13:14] GS: 143 knots
FS[13:14] TAS: 144 knots
FS[13:14] IAS: 139 knots
FS[13:14] VS: 195 fpm
FS[13:14] FOB: 289 lbs
FS[13:14] Heading: 150°
FS[13:14] Pitch: 0°
FS[13:14] Bank: 0°
FS[13:14] Aircraft Weight: 3529.12 lbs
FS[13:14] ADF1: 365.0
FS[13:14] NAV1: 112.40
FS[13:17] Recovery: Flight Saved
FS[13:25] Recovery: Flight Saved
FS[13:32] Recovery: Flight Saved
FS[13:40] Recovery: Flight Saved
FS[13:47] Recovery: Flight Saved
FS[13:49] Flaps: Position 1
FS[13:49] GS: 101 knots
FS[13:49] TAS: 101 knots
FS[13:49] IAS: 98 knots
FS[13:49] VS: 282 fpm
FS[13:49] Flaps: Position 2
FS[13:49] GS: 79 knots
FS[13:49] TAS: 82 knots
FS[13:49] IAS: 79 knots
FS[13:49] VS: 1132 fpm
FS[13:49] Flaps: Position 3
FS[13:49] GS: 77 knots
FS[13:49] TAS: 78 knots
FS[13:49] IAS: 75 knots
FS[13:49] VS: 1081 fpm
FS[13:50] NOTE: TOD reached
FS[13:50] NOTE: Descent started
FS[13:50] GS: 60 knots
FS[13:50] TAS: 61 knots
FS[13:50] IAS: 59 knots
FS[13:50] VS: -727 fpm
FS[13:50] FOB: 141 lbs
FS[13:50] Heading: 196°
FS[13:50] Pitch: 6°
FS[13:50] Bank: 0°
FS[13:50] Aircraft Weight: 3381.70 lbs
FS[13:50] NOTE: On approach
FS[13:54] NOTE: ----- LANDED -----
FS[13:54] Landing Rate: -176.86 fpm
FS[13:54] GS: 54 knots
FS[13:54] TAS: 54 knots
FS[13:54] IAS: 54 knots
FS[13:54] VS: -176 fpm
FS[13:54] FOB: 136 lbs
FS[13:54] Heading: 157°
FS[13:54] Pitch: 0°
FS[13:54] Bank: 0°
FS[13:54] Aircraft Weight: 3376.08 lbs
FS[13:54] Nearest Airport: PANV
FS[13:54] Distance: 15.41 miles
FS[13:54] Runway: 15 - KGX
FS[13:54] Ground Surface: Gravel
FS[13:54] Ground Condition: Normal
FS[13:54] NOTE: Weather Report
FS[13:54] Wind Heading: 347°
FS[13:54] Wind Speed: 0 knots
FS[13:54] OAT: 14° C
FS[13:54] TAT: 15° C
FS[13:54] Precipitation: None
FS[13:54] Dew Point: 4° C
FS[13:54] Visibility: 62 miles
FS[13:54] METAR: PANV 121507Z AUTO 25004KT 10SM SCT015 06/05 A3032 RMK AO2
FS[13:54] View Mode: Virtual Cockpit
FS[13:54] NOTE: Taxi started
FS[13:54] NOTE: Arrived
FS[13:54] Parking Brake: Engaged
FS[13:54] Flaps: Position 0
FS[13:54] Parking Brake: Released
FS[13:55] Parking Brake: Engaged
FS[13:55] Flaps: Position 2
FS[13:55] Parking Brake: Released
FS[13:56] Flaps: Position 0
FS[13:56] GS: 79 knots
FS[13:56] TAS: 81 knots
FS[13:56] IAS: 81 knots
FS[13:56] VS: 579 fpm
FS[13:56] View Mode: Virtual Cockpit
FS[14:00] Recovery: Flight Saved
FS[14:00] Flaps: Position 1
FS[14:00] GS: 103 knots
FS[14:00] TAS: 103 knots
FS[14:00] IAS: 99 knots
FS[14:00] VS: -26 fpm
FS[14:00] Flaps: Position 2
FS[14:00] GS: 91 knots
FS[14:00] TAS: 92 knots
FS[14:00] IAS: 88 knots
FS[14:00] VS: 733 fpm
FS[14:00] Flaps: Position 3
FS[14:00] GS: 81 knots
FS[14:00] TAS: 82 knots
FS[14:00] IAS: 79 knots
FS[14:00] VS: 704 fpm
FS[14:05] NOTE: ----- LANDED -----
FS[14:05] Landing Rate: -88.43 fpm
FS[14:05] GS: 60 knots
FS[14:05] TAS: 60 knots
FS[14:05] IAS: 60 knots
FS[14:05] VS: -86 fpm
FS[14:05] FOB: 108 lbs
FS[14:05] Heading: 174°
FS[14:05] Pitch: 2°
FS[14:05] Bank: 0°
FS[14:05] Aircraft Weight: 3348.16 lbs
FS[14:05] Nearest Airport: PANV
FS[14:05] Distance: 0.08 miles
FS[14:05] Runway: 17 - PANV
FS[14:05] Ground Surface: Gravel
FS[14:05] Ground Condition: Normal
FS[14:05] NOTE: Weather Report
FS[14:05] Wind Heading: 347°
FS[14:05] Wind Speed: 0 knots
FS[14:05] OAT: 14° C
FS[14:05] TAT: 14° C
FS[14:05] Precipitation: None
FS[14:05] Dew Point: 4° C
FS[14:05] Visibility: 62 miles
FS[14:05] METAR: PANV 121507Z AUTO 25004KT 10SM SCT015 06/05 A3032 RMK AO2
FS[14:05] View Mode: Virtual Cockpit
FS[14:05] Flaps: Position 0
FS[14:06] Parking Brake: Engaged
FS[14:06] Light Data: Landing lights OFF
FS[14:06] Light Data: Navigation OFF
FS[14:06] Engine 1: Stopped
FS[14:06] Main Door Open
FS[14:06] Light Data: Beacon OFF
FS[14:06] Gate: n/a
FS[14:06] NOTE: Flight Completed
FS[14:06] FS Aircraft: DHC-2A Misty Moorings 3 Tundra Wheels dirty
FS[14:06] FS Model: DHC2
FS[14:06] FS Type: DEHAVILLAND
FS[14:06] FOB: 108 lbs
FS[14:06] Fuel Used: 195 lbs
FS[14:06] Flight Time: 00:58:29
FS[14:06] Flight Time (Dawn): 00:00:00
FS[14:06] Flight Time (Day): 00:58:29
FS[14:06] Flight Time (Dusk): 00:00:00
FS[14:06] Flight Time (Night): 00:00:00
FS[14:06] Total Landings: 2
FS[14:06] MaxSim Rate: 0x
FS[14:06] Cigar Box - 1.1.4.0
FS[14:06] ----- Flight Closed -----

Route Map